sensor_id;sensor_type;location;lat;lon;timestamp;P1;P2;P0
78316;PMS7003;67572;50.930;18.276;2023-07-24T00:02:10;6.25;5.75;5.75
78316;PMS7003;67572;50.930;18.276;2023-07-24T00:05:17;6.75;6.00;6.00
78316;PMS7003;67572;50.930;18.276;2023-07-24T00:08:22;6.00;4.50;3.00
78316;PMS7003;67572;50.930;18.276;2023-07-24T00:11:26;5.75;4.00;4.00
78316;PMS7003;67572;50.930;18.276;2023-07-24T00:14:29;9.00;6.67;6.33
78316;PMS7003;67572;50.930;18.276;2023-07-24T00:17:33;5.50;5.00;4.00
78316;PMS7003;67572;50.930;18.276;2023-07-24T00:20:38;5.00;5.00;5.00
78316;PMS7003;67572;50.930;18.276;2023-07-24T00:23:41;5.00;5.00;5.00
78316;PMS7003;67572;50.930;18.276;2023-07-24T00:26:45;5.00;5.00;5.00
78316;PMS7003;67572;50.930;18.276;2023-07-24T00:29:48;6.00;5.25;5.25
78316;PMS7003;67572;50.930;18.276;2023-07-24T00:32:52;6.00;6.00;6.00
78316;PMS7003;67572;50.930;18.276;2023-07-24T00:35:58;9.00;5.25;5.00
78316;PMS7003;67572;50.930;18.276;2023-07-24T00:39:02;3.50;3.50;2.50
78316;PMS7003;67572;50.930;18.276;2023-07-24T00:42:06;3.00;3.00;2.75
78316;PMS7003;67572;50.930;18.276;2023-07-24T00:45:09;4.25;3.25;2.50
78316;PMS7003;67572;50.930;18.276;2023-07-24T00:48:13;6.50;3.00;3.00
78316;PMS7003;67572;50.930;18.276;2023-07-24T00:51:18;2.00;2.00;2.00
78316;PMS7003;67572;50.930;18.276;2023-07-24T00:54:22;2.25;2.25;2.25
78316;PMS7003;67572;50.930;18.276;2023-07-24T00:57:26;6.00;5.00;5.00
78316;PMS7003;67572;50.930;18.276;2023-07-24T01:00:32;3.50;3.50;3.50
78316;PMS7003;67572;50.930;18.276;2023-07-24T01:03:36;3.00;3.00;3.00
78316;PMS7003;67572;50.930;18.276;2023-07-24T01:06:42;4.67;4.67;4.67
78316;PMS7003;67572;50.930;18.276;2023-07-24T01:09:46;2.00;2.00;2.00
78316;PMS7003;67572;50.930;18.276;2023-07-24T01:12:51;4.00;4.00;4.00
78316;PMS7003;67572;50.930;18.276;2023-07-24T01:16:03;4.00;4.00;2.67
78316;PMS7003;67572;50.930;18.276;2023-07-24T01:19:12;2.00;2.00;2.00
78316;PMS7003;67572;50.930;18.276;2023-07-24T01:22:38;4.00;4.00;4.00
78316;PMS7003;67572;50.930;18.276;2023-07-24T01:25:55;5.00;5.00;5.00
78316;PMS7003;67572;50.930;18.276;2023-07-24T01:28:59;2.00;2.00;2.00
78316;PMS7003;67572;50.930;18.276;2023-07-24T01:32:03;4.67;4.67;4.67
78316;PMS7003;67572;50.930;18.276;2023-07-24T01:35:07;4.00;2.00;2.00
78316;PMS7003;67572;50.930;18.276;2023-07-24T01:38:11;1.00;1.00;1.00
78316;PMS7003;67572;50.930;18.276;2023-07-24T01:41:17;4.00;4.00;4.00
78316;PMS7003;67572;50.930;18.276;2023-07-24T01:44:23;4.67;4.67;4.00
78316;PMS7003;67572;50.930;18.276;2023-07-24T01:47:26;5.00;4.00;4.00
78316;PMS7003;67572;50.930;18.276;2023-07-24T01:50:32;4.00;2.00;2.00
78316;PMS7003;67572;50.930;18.276;2023-07-24T01:53:36;2.00;2.00;2.00
78316;PMS7003;67572;50.930;18.276;2023-07-24T01:56:41;6.33;4.00;4.00
78316;PMS7003;67572;50.930;18.276;2023-07-24T01:59:45;2.00;2.00;2.00
78316;PMS7003;67572;50.930;18.276;2023-07-24T02:02:51;10.33;4.00;4.00
78316;PMS7003;67572;50.930;18.276;2023-07-24T02:05:54;3.67;2.00;1.67
78316;PMS7003;67572;50.930;18.276;2023-07-24T02:08:58;1.33;1.33;1.33
78316;PMS7003;67572;50.930;18.276;2023-07-24T02:12:03;2.67;2.00;1.67
78316;PMS7003;67572;50.930;18.276;2023-07-24T02:15:08;6.00;3.33;3.33
78316;PMS7003;67572;50.930;18.276;2023-07-24T02:18:14;5.00;5.00;5.00
78316;PMS7003;67572;50.930;18.276;2023-07-24T02:21:18;1.33;1.00;1.00
78316;PMS7003;67572;50.930;18.276;2023-07-24T02:24:22;1.00;1.00;1.00
78316;PMS7003;67572;50.930;18.276;2023-07-24T02:27:27;4.67;4.67;4.00
78316;PMS7003;67572;50.930;18.276;2023-07-24T02:30:32;4.00;1.33;1.33
78316;PMS7003;67572;50.930;18.276;2023-07-24T02:33:41;2.67;2.00;2.00
78316;PMS7003;67572;50.930;18.276;2023-07-24T02:36:44;2.00;1.00;1.00
78316;PMS7003;67572;50.930;18.276;2023-07-24T02:39:48;2.67;2.00;2.00
78316;PMS7003;67572;50.930;18.276;2023-07-24T02:42:52;5.67;3.33;2.67
78316;PMS7003;67572;50.930;18.276;2023-07-24T02:45:59;4.67;2.00;2.00
78316;PMS7003;67572;50.930;18.276;2023-07-24T02:49:04;1.00;1.00;1.00
78316;PMS7003;67572;50.930;18.276;2023-07-24T02:52:07;2.67;2.67;2.67
78316;PMS7003;67572;50.930;18.276;2023-07-24T02:55:11;2.67;2.00;2.00
78316;PMS7003;67572;50.930;18.276;2023-07-24T02:58:16;5.67;5.00;4.00
78316;PMS7003;67572;50.930;18.276;2023-07-24T03:01:19;5.00;5.00;4.33
78316;PMS7003;67572;50.930;18.276;2023-07-24T03:04:23;8.00;7.00;7.00
78316;PMS7003;67572;50.930;18.276;2023-07-24T03:07:27;4.33;4.33;4.33
78316;PMS7003;67572;50.930;18.276;2023-07-24T03:10:30;8.00;7.00;7.00
78316;PMS7003;67572;50.930;18.276;2023-07-24T03:13:35;7.00;7.00;5.00
78316;PMS7003;67572;50.930;18.276;2023-07-24T03:16:39;7.67;7.00;7.00
78316;PMS7003;67572;50.930;18.276;2023-07-24T03:19:42;7.33;5.00;5.00
78316;PMS7003;67572;50.930;18.276;2023-07-24T03:22:46;7.00;5.00;5.00
78316;PMS7003;67572;50.930;18.276;2023-07-24T03:25:52;5.00;5.00;5.00
78316;PMS7003;67572;50.930;18.276;2023-07-24T03:28:57;8.00;5.00;5.00
78316;PMS7003;67572;50.930;18.276;2023-07-24T03:32:00;5.00;5.00;5.00
78316;PMS7003;67572;50.930;18.276;2023-07-24T03:35:05;8.00;7.00;5.00
78316;PMS7003;67572;50.930;18.276;2023-07-24T03:38:09;9.00;5.67;5.67
78316;PMS7003;67572;50.930;18.276;2023-07-24T03:41:13;7.00;5.00;5.00
78316;PMS7003;67572;50.930;18.276;2023-07-24T03:44:18;9.00;5.67;5.00
78316;PMS7003;67572;50.930;18.276;2023-07-24T03:47:22;4.67;4.67;4.33
78316;PMS7003;67572;50.930;18.276;2023-07-24T03:50:26;7.33;7.00;7.00
78316;PMS7003;67572;50.930;18.276;2023-07-24T03:53:32;6.33;5.00;5.00
78316;PMS7003;67572;50.930;18.276;2023-07-24T03:56:35;7.00;7.00;7.00
78316;PMS7003;67572;50.930;18.276;2023-07-24T03:59:40;5.00;5.00;5.00
78316;PMS7003;67572;50.930;18.276;2023-07-24T04:02:44;11.00;5.00;5.00
78316;PMS7003;67572;50.930;18.276;2023-07-24T04:05:48;7.67;7.67;7.00
78316;PMS7003;67572;50.930;18.276;2023-07-24T04:08:51;6.33;4.33;4.33
78316;PMS7003;67572;50.930;18.276;2023-07-24T04:11:57;8.00;7.00;5.00
78316;PMS7003;67572;50.930;18.276;2023-07-24T04:15:02;5.67;5.67;5.67
78316;PMS7003;67572;50.930;18.276;2023-07-24T04:18:05;6.33;6.33;6.33
78316;PMS7003;67572;50.930;18.276;2023-07-24T04:21:09;11.33;5.00;5.00
78316;PMS7003;67572;50.930;18.276;2023-07-24T04:24:13;8.00;8.00;8.00
78316;PMS7003;67572;50.930;18.276;2023-07-24T04:27:17;5.33;5.33;5.33
78316;PMS7003;67572;50.930;18.276;2023-07-24T04:30:22;5.33;5.33;5.00
78316;PMS7003;67572;50.930;18.276;2023-07-24T04:33:25;8.00;6.33;6.00
78316;PMS7003;67572;50.930;18.276;2023-07-24T04:36:29;11.00;10.33;9.00
78316;PMS7003;67572;50.930;18.276;2023-07-24T04:39:33;5.00;5.00;5.00
78316;PMS7003;67572;50.930;18.276;2023-07-24T04:42:37;9.00;7.33;7.33
78316;PMS7003;67572;50.930;18.276;2023-07-24T04:45:42;11.33;11.33;10.33
78316;PMS7003;67572;50.930;18.276;2023-07-24T04:48:45;9.67;9.67;9.67
78316;PMS7003;67572;50.930;18.276;2023-07-24T04:51:49;8.33;8.33;8.00
78316;PMS7003;67572;50.930;18.276;2023-07-24T04:54:52;7.33;7.33;6.67
78316;PMS7003;67572;50.930;18.276;2023-07-24T04:57:56;11.67;9.00;8.00
78316;PMS7003;67572;50.930;18.276;2023-07-24T05:01:03;11.00;11.00;11.00
78316;PMS7003;67572;50.930;18.276;2023-07-24T05:04:07;10.33;8.00;7.33
78316;PMS7003;67572;50.930;18.276;2023-07-24T05:07:10;11.67;9.00;9.00
78316;PMS7003;67572;50.930;18.276;2023-07-24T05:10:14;12.00;10.33;9.00
78316;PMS7003;67572;50.930;18.276;2023-07-24T05:13:18;13.00;12.00;10.67
78316;PMS7003;67572;50.930;18.276;2023-07-24T05:16:23;4.67;4.67;4.67
78316;PMS7003;67572;50.930;18.276;2023-07-24T05:19:27;10.33;9.00;9.00
78316;PMS7003;67572;50.930;18.276;2023-07-24T05:22:30;10.00;10.00;9.33
78316;PMS7003;67572;50.930;18.276;2023-07-24T05:25:34;13.00;10.67;10.00
78316;PMS7003;67572;50.930;18.276;2023-07-24T05:28:37;13.00;10.67;9.67
78316;PMS7003;67572;50.930;18.276;2023-07-24T05:31:43;11.33;9.67;9.67
78316;PMS7003;67572;50.930;18.276;2023-07-24T05:34:46;10.67;8.00;6.00
78316;PMS7003;67572;50.930;18.276;2023-07-24T05:37:50;8.67;8.67;8.67
78316;PMS7003;67572;50.930;18.276;2023-07-24T05:40:54;10.67;8.33;8.00
78316;PMS7003;67572;50.930;18.276;2023-07-24T05:43:58;12.33;7.33;6.67
78316;PMS7003;67572;50.930;18.276;2023-07-24T05:47:03;8.67;7.33;6.67
78316;PMS7003;67572;50.930;18.276;2023-07-24T05:50:07;8.67;8.00;8.00
78316;PMS7003;67572;50.930;18.276;2023-07-24T05:53:11;9.00;9.00;9.00
78316;PMS7003;67572;50.930;18.276;2023-07-24T05:56:14;12.00;8.67;8.00
78316;PMS7003;67572;50.930;18.276;2023-07-24T05:59:18;5.50;5.50;5.00
78316;PMS7003;67572;50.930;18.276;2023-07-24T06:02:23;8.75;5.75;5.50
78316;PMS7003;67572;50.930;18.276;2023-07-24T06:05:27;10.00;6.00;6.00
78316;PMS7003;67572;50.930;18.276;2023-07-24T06:08:30;7.75;5.50;5.50
78316;PMS7003;67572;50.930;18.276;2023-07-24T06:11:34;6.75;5.75;5.75
78316;PMS7003;67572;50.930;18.276;2023-07-24T06:14:37;8.00;6.25;6.25
78316;PMS7003;67572;50.930;18.276;2023-07-24T06:17:42;6.00;5.00;3.00
78316;PMS7003;67572;50.930;18.276;2023-07-24T06:20:46;6.00;6.00;6.00
78316;PMS7003;67572;50.930;18.276;2023-07-24T06:23:52;5.25;5.00;5.00
78316;PMS7003;67572;50.930;18.276;2023-07-24T06:26:55;6.50;5.50;5.50
78316;PMS7003;67572;50.930;18.276;2023-07-24T06:29:59;3.00;3.00;3.00
78316;PMS7003;67572;50.930;18.276;2023-07-24T06:33:17;2.50;2.50;2.50
78316;PMS7003;67572;50.930;18.276;2023-07-24T06:36:21;2.25;2.25;2.25
78316;PMS7003;67572;50.930;18.276;2023-07-24T06:39:24;5.00;5.00;5.00
78316;PMS7003;67572;50.930;18.276;2023-07-24T06:42:28;3.00;3.00;2.75
78316;PMS7003;67572;50.930;18.276;2023-07-24T06:45:31;6.00;4.00;4.00
78316;PMS7003;67572;50.930;18.276;2023-07-24T06:48:36;6.00;5.00;5.00
78316;PMS7003;67572;50.930;18.276;2023-07-24T06:51:40;5.00;3.00;2.50
78316;PMS7003;67572;50.930;18.276;2023-07-24T06:54:44;5.75;3.00;3.00
78316;PMS7003;67572;50.930;18.276;2023-07-24T06:57:48;5.00;4.20;3.40
78316;PMS7003;67572;50.930;18.276;2023-07-24T07:00:52;5.20;3.00;2.00
78316;PMS7003;67572;50.930;18.276;2023-07-24T07:03:57;3.00;3.00;3.00
78316;PMS7003;67572;50.930;18.276;2023-07-24T07:07:04;6.60;2.20;1.80
78316;PMS7003;67572;50.930;18.276;2023-07-24T07:10:07;3.00;2.00;2.00
78316;PMS7003;67572;50.930;18.276;2023-07-24T07:13:11;4.40;3.00;3.00
78316;PMS7003;67572;50.930;18.276;2023-07-24T07:16:15;3.00;2.80;2.60
78316;PMS7003;67572;50.930;18.276;2023-07-24T07:19:22;2.20;2.00;2.00
78316;PMS7003;67572;50.930;18.276;2023-07-24T07:22:25;2.60;2.60;2.60
78316;PMS7003;67572;50.930;18.276;2023-07-24T07:25:29;6.00;4.00;4.00
78316;PMS7003;67572;50.930;18.276;2023-07-24T07:28:32;2.00;2.00;2.00
78316;PMS7003;67572;50.930;18.276;2023-07-24T07:31:36;4.60;2.80;2.60
78316;PMS7003;67572;50.930;18.276;2023-07-24T07:34:41;2.60;1.80;1.80
78316;PMS7003;67572;50.930;18.276;2023-07-24T07:37:44;4.00;2.80;2.00
78316;PMS7003;67572;50.930;18.276;2023-07-24T07:40:48;3.20;3.20;3.20
78316;PMS7003;67572;50.930;18.276;2023-07-24T07:43:51;7.60;7.60;7.40
78316;PMS7003;67572;50.930;18.276;2023-07-24T07:46:55;5.20;3.80;3.00
78316;PMS7003;67572;50.930;18.276;2023-07-24T07:50:00;3.40;3.00;3.00
78316;PMS7003;67572;50.930;18.276;2023-07-24T07:53:04;4.00;3.00;3.00
78316;PMS7003;67572;50.930;18.276;2023-07-24T07:56:08;3.20;3.20;3.20
78316;PMS7003;67572;50.930;18.276;2023-07-24T07:59:11;4.40;4.00;3.60
78316;PMS7003;67572;50.930;18.276;2023-07-24T08:02:15;4.80;3.00;3.00
78316;PMS7003;67572;50.930;18.276;2023-07-24T08:05:20;5.60;4.00;3.20
78316;PMS7003;67572;50.930;18.276;2023-07-24T08:08:24;8.60;4.40;3.60
78316;PMS7003;67572;50.930;18.276;2023-07-24T08:11:27;3.80;3.20;3.00
78316;PMS7003;67572;50.930;18.276;2023-07-24T08:14:31;3.60;3.60;3.60
78316;PMS7003;67572;50.930;18.276;2023-07-24T08:17:34;2.40;2.40;2.40
78316;PMS7003;67572;50.930;18.276;2023-07-24T08:20:39;4.40;2.20;2.20
78316;PMS7003;67572;50.930;18.276;2023-07-24T08:23:43;7.00;3.00;3.00
78316;PMS7003;67572;50.930;18.276;2023-07-24T08:26:47;5.20;3.60;3.00
78316;PMS7003;67572;50.930;18.276;2023-07-24T08:29:50;3.00;3.00;2.60
78316;PMS7003;67572;50.930;18.276;2023-07-24T08:32:54;4.40;3.40;3.40
78316;PMS7003;67572;50.930;18.276;2023-07-24T08:36:04;2.80;2.60;2.60
78316;PMS7003;67572;50.930;18.276;2023-07-24T08:39:08;1.80;1.80;1.80
78316;PMS7003;67572;50.930;18.276;2023-07-24T08:42:12;3.00;2.00;2.00
78316;PMS7003;67572;50.930;18.276;2023-07-24T08:45:16;2.80;2.80;2.80
78316;PMS7003;67572;50.930;18.276;2023-07-24T08:48:19;3.00;2.00;2.00
78316;PMS7003;67572;50.930;18.276;2023-07-24T08:51:26;3.00;3.00;2.60
78316;PMS7003;67572;50.930;18.276;2023-07-24T08:54:30;3.00;2.00;2.00
78316;PMS7003;67572;50.930;18.276;2023-07-24T08:57:40;3.00;3.00;2.80
78316;PMS7003;67572;50.930;18.276;2023-07-24T09:00:44;3.60;3.60;3.60
78316;PMS7003;67572;50.930;18.276;2023-07-24T09:03:48;1.00;1.00;1.00
78316;PMS7003;67572;50.930;18.276;2023-07-24T09:06:55;4.40;3.40;3.40
78316;PMS7003;67572;50.930;18.276;2023-07-24T09:09:59;1.60;1.60;1.60
78316;PMS7003;67572;50.930;18.276;2023-07-24T09:13:03;4.20;3.20;3.20
78316;PMS7003;67572;50.930;18.276;2023-07-24T09:16:06;0.20;0.00;0.00
78316;PMS7003;67572;50.930;18.276;2023-07-24T09:19:16;4.80;3.00;3.00
78316;PMS7003;67572;50.930;18.276;2023-07-24T09:22:29;3.40;3.40;3.20
78316;PMS7003;67572;50.930;18.276;2023-07-24T09:25:32;2.60;2.60;2.60
78316;PMS7003;67572;50.930;18.276;2023-07-24T09:28:37;4.20;3.00;3.00
78316;PMS7003;67572;50.930;18.276;2023-07-24T09:31:40;2.80;2.80;2.40
78316;PMS7003;67572;50.930;18.276;2023-07-24T09:34:45;6.80;5.00;4.80
78316;PMS7003;67572;50.930;18.276;2023-07-24T09:37:50;3.00;3.00;3.00
78316;PMS7003;67572;50.930;18.276;2023-07-24T09:40:53;3.80;3.80;3.80
78316;PMS7003;67572;50.930;18.276;2023-07-24T09:43:58;4.00;4.00;4.00
78316;PMS7003;67572;50.930;18.276;2023-07-24T09:47:02;3.40;3.40;3.40
78316;PMS7003;67572;50.930;18.276;2023-07-24T09:50:26;6.00;5.00;5.00
78316;PMS7003;67572;50.930;18.276;2023-07-24T09:53:33;3.00;1.40;1.40
78316;PMS7003;67572;50.930;18.276;2023-07-24T09:56:41;4.80;3.00;3.00
78316;PMS7003;67572;50.930;18.276;2023-07-24T09:59:56;5.80;4.20;4.00
78316;PMS7003;67572;50.930;18.276;2023-07-24T10:03:00;4.60;3.20;3.00
78316;PMS7003;67572;50.930;18.276;2023-07-24T10:06:05;3.80;2.60;2.60
78316;PMS7003;67572;50.930;18.276;2023-07-24T10:09:11;3.20;2.20;2.20
78316;PMS7003;67572;50.930;18.276;2023-07-24T10:12:16;4.80;3.40;3.40
78316;PMS7003;67572;50.930;18.276;2023-07-24T10:15:21;4.40;4.40;4.40
78316;PMS7003;67572;50.930;18.276;2023-07-24T10:18:25;3.00;3.00;3.00
78316;PMS7003;67572;50.930;18.276;2023-07-24T10:21:31;4.00;3.80;3.40
78316;PMS7003;67572;50.930;18.276;2023-07-24T10:24:37;4.00;4.00;4.00
78316;PMS7003;67572;50.930;18.276;2023-07-24T10:27:43;3.80;3.80;3.40
78316;PMS7003;67572;50.930;18.276;2023-07-24T10:30:54;5.20;4.60;4.40
78316;PMS7003;67572;50.930;18.276;2023-07-24T10:34:03;4.00;3.00;3.00
78316;PMS7003;67572;50.930;18.276;2023-07-24T10:37:07;3.00;3.00;2.40
78316;PMS7003;67572;50.930;18.276;2023-07-24T10:40:20;3.40;3.40;3.20
78316;PMS7003;67572;50.930;18.276;2023-07-24T10:43:24;6.20;6.00;4.40
78316;PMS7003;67572;50.930;18.276;2023-07-24T10:46:35;7.00;4.40;4.20
78316;PMS7003;67572;50.930;18.276;2023-07-24T10:49:42;4.60;3.00;3.00
78316;PMS7003;67572;50.930;18.276;2023-07-24T10:52:51;3.00;3.00;3.00
78316;PMS7003;67572;50.930;18.276;2023-07-24T10:55:56;2.80;2.80;2.40
78316;PMS7003;67572;50.930;18.276;2023-07-24T10:59:02;4.00;4.00;4.00
78316;PMS7003;67572;50.930;18.276;2023-07-24T11:02:07;3.20;2.40;2.00
78316;PMS7003;67572;50.930;18.276;2023-07-24T11:05:12;4.40;4.20;4.00
78316;PMS7003;67572;50.930;18.276;2023-07-24T11:08:17;4.40;3.20;3.00
78316;PMS7003;67572;50.930;18.276;2023-07-24T11:11:28;4.20;3.00;3.00
78316;PMS7003;67572;50.930;18.276;2023-07-24T11:14:33;3.20;3.20;3.20
78316;PMS7003;67572;50.930;18.276;2023-07-24T11:17:37;2.80;2.40;2.40
78316;PMS7003;67572;50.930;18.276;2023-07-24T11:20:43;4.60;3.00;3.00
78316;PMS7003;67572;50.930;18.276;2023-07-24T11:23:48;4.80;3.80;3.40
78316;PMS7003;67572;50.930;18.276;2023-07-24T11:26:54;3.00;2.00;2.00
78316;PMS7003;67572;50.930;18.276;2023-07-24T11:29:58;4.40;4.40;3.40
78316;PMS7003;67572;50.930;18.276;2023-07-24T11:33:02;3.20;2.60;2.60
78316;PMS7003;67572;50.930;18.276;2023-07-24T11:36:07;3.40;3.40;3.00
78316;PMS7003;67572;50.930;18.276;2023-07-24T11:39:12;5.60;3.00;3.00
78316;PMS7003;67572;50.930;18.276;2023-07-24T11:42:20;4.00;3.20;3.20
78316;PMS7003;67572;50.930;18.276;2023-07-24T11:45:24;3.60;3.60;2.80
78316;PMS7003;67572;50.930;18.276;2023-07-24T11:48:28;4.40;4.40;4.20
78316;PMS7003;67572;50.930;18.276;2023-07-24T11:51:31;8.20;4.40;4.00
78316;PMS7003;67572;50.930;18.276;2023-07-24T11:54:36;6.60;5.00;4.60
78316;PMS7003;67572;50.930;18.276;2023-07-24T11:57:41;5.00;3.00;3.00
78316;PMS7003;67572;50.930;18.276;2023-07-24T12:00:45;5.00;4.00;3.80
78316;PMS7003;67572;50.930;18.276;2023-07-24T12:03:48;5.00;5.00;4.80
78316;PMS7003;67572;50.930;18.276;2023-07-24T12:06:52;4.00;2.60;2.60
78316;PMS7003;67572;50.930;18.276;2023-07-24T12:09:56;5.40;3.60;3.20
78316;PMS7003;67572;50.930;18.276;2023-07-24T12:13:01;6.20;5.00;4.20
78316;PMS7003;67572;50.930;18.276;2023-07-24T12:16:04;3.40;3.40;3.00
78316;PMS7003;67572;50.930;18.276;2023-07-24T12:19:10;4.20;2.60;2.60
78316;PMS7003;67572;50.930;18.276;2023-07-24T12:22:13;3.40;2.20;2.20
78316;PMS7003;67572;50.930;18.276;2023-07-24T12:25:17;3.60;2.60;2.40
78316;PMS7003;67572;50.930;18.276;2023-07-24T12:28:23;4.20;3.40;3.40
78316;PMS7003;67572;50.930;18.276;2023-07-24T12:31:26;4.00;2.80;2.80
78316;PMS7003;67572;50.930;18.276;2023-07-24T12:34:31;4.60;3.80;3.60
78316;PMS7003;67572;50.930;18.276;2023-07-24T12:37:35;5.60;4.80;4.80
78316;PMS7003;67572;50.930;18.276;2023-07-24T12:40:41;4.80;4.40;4.00
78316;PMS7003;67572;50.930;18.276;2023-07-24T12:43:46;3.00;3.00;3.00
78316;PMS7003;67572;50.930;18.276;2023-07-24T12:46:49;3.40;3.40;3.20
78316;PMS7003;67572;50.930;18.276;2023-07-24T12:49:53;4.80;3.40;3.40
78316;PMS7003;67572;50.930;18.276;2023-07-24T12:52:58;10.40;6.00;5.80
78316;PMS7003;67572;50.930;18.276;2023-07-24T12:56:05;3.80;3.80;3.60
78316;PMS7003;67572;50.930;18.276;2023-07-24T12:59:10;4.00;3.60;3.60
78316;PMS7003;67572;50.930;18.276;2023-07-24T13:02:14;5.40;5.00;4.60
78316;PMS7003;67572;50.930;18.276;2023-07-24T13:05:17;6.80;6.00;5.60
78316;PMS7003;67572;50.930;18.276;2023-07-24T13:08:21;5.00;4.00;3.20
78316;PMS7003;67572;50.930;18.276;2023-07-24T13:11:25;5.00;4.00;3.60
78316;PMS7003;67572;50.930;18.276;2023-07-24T13:14:31;4.80;4.80;4.80
78316;PMS7003;67572;50.930;18.276;2023-07-24T13:17:35;4.20;4.20;4.00
78316;PMS7003;67572;50.930;18.276;2023-07-24T13:20:39;5.60;5.60;4.60
78316;PMS7003;67572;50.930;18.276;2023-07-24T13:23:43;6.80;6.60;6.60
78316;PMS7003;67572;50.930;18.276;2023-07-24T13:26:49;7.00;5.00;5.00
78316;PMS7003;67572;50.930;18.276;2023-07-24T13:29:55;5.80;4.20;4.20
78316;PMS7003;67572;50.930;18.276;2023-07-24T13:32:58;9.00;7.00;6.40
78316;PMS7003;67572;50.930;18.276;2023-07-24T13:36:02;6.00;5.00;4.60
78316;PMS7003;67572;50.930;18.276;2023-07-24T13:39:06;6.00;6.00;6.00
78316;PMS7003;67572;50.930;18.276;2023-07-24T13:42:10;6.60;5.20;5.20
78316;PMS7003;67572;50.930;18.276;2023-07-24T13:45:15;5.20;4.20;4.00
78316;PMS7003;67572;50.930;18.276;2023-07-24T13:48:18;5.40;5.40;5.00
78316;PMS7003;67572;50.930;18.276;2023-07-24T13:51:22;6.00;6.00;5.00
78316;PMS7003;67572;50.930;18.276;2023-07-24T13:54:26;5.40;4.80;4.80
78316;PMS7003;67572;50.930;18.276;2023-07-24T13:57:29;5.40;5.40;5.00
78316;PMS7003;67572;50.930;18.276;2023-07-24T14:00:35;7.60;5.60;5.40
78316;PMS7003;67572;50.930;18.276;2023-07-24T14:03:39;5.00;4.00;4.00
78316;PMS7003;67572;50.930;18.276;2023-07-24T14:06:43;6.00;6.00;5.00
78316;PMS7003;67572;50.930;18.276;2023-07-24T14:09:46;5.60;5.00;5.00
78316;PMS7003;67572;50.930;18.276;2023-07-24T14:12:50;4.80;4.80;4.80
78316;PMS7003;67572;50.930;18.276;2023-07-24T14:15:55;5.60;5.60;5.40
78316;PMS7003;67572;50.930;18.276;2023-07-24T14:18:58;5.80;5.80;5.40
78316;PMS7003;67572;50.930;18.276;2023-07-24T14:22:02;4.60;4.60;4.20
78316;PMS7003;67572;50.930;18.276;2023-07-24T14:25:06;5.40;5.20;5.20
78316;PMS7003;67572;50.930;18.276;2023-07-24T14:28:10;10.20;7.40;6.60
78316;PMS7003;67572;50.930;18.276;2023-07-24T14:31:15;7.40;6.20;5.20
78316;PMS7003;67572;50.930;18.276;2023-07-24T14:34:18;7.00;6.00;5.40
78316;PMS7003;67572;50.930;18.276;2023-07-24T14:37:22;8.00;6.40;5.80
78316;PMS7003;67572;50.930;18.276;2023-07-24T14:40:25;4.80;4.80;4.60
78316;PMS7003;67572;50.930;18.276;2023-07-24T14:43:29;5.00;5.00;5.00
78316;PMS7003;67572;50.930;18.276;2023-07-24T14:46:34;6.00;6.00;5.20
78316;PMS7003;67572;50.930;18.276;2023-07-24T14:49:37;5.00;5.00;5.00
78316;PMS7003;67572;50.930;18.276;2023-07-24T14:52:41;7.40;7.00;6.20
78316;PMS7003;67572;50.930;18.276;2023-07-24T14:55:45;9.00;5.80;5.60
78316;PMS7003;67572;50.930;18.276;2023-07-24T14:58:48;10.00;9.60;8.00
78316;PMS7003;67572;50.930;18.276;2023-07-24T15:01:53;9.60;8.00;6.80
78316;PMS7003;67572;50.930;18.276;2023-07-24T15:04:57;12.00;8.80;8.20
78316;PMS7003;67572;50.930;18.276;2023-07-24T15:08:00;8.40;7.00;7.00
78316;PMS7003;67572;50.930;18.276;2023-07-24T15:11:04;6.60;6.60;6.20
78316;PMS7003;67572;50.930;18.276;2023-07-24T15:14:07;10.00;8.00;6.80
78316;PMS7003;67572;50.930;18.276;2023-07-24T15:17:12;6.80;5.40;5.40
78316;PMS7003;67572;50.930;18.276;2023-07-24T15:20:16;9.60;9.60;8.60
78316;PMS7003;67572;50.930;18.276;2023-07-24T15:23:19;15.00;8.80;8.40
78316;PMS7003;67572;50.930;18.276;2023-07-24T15:26:23;9.60;8.00;7.80
78316;PMS7003;67572;50.930;18.276;2023-07-24T15:29:30;10.00;9.20;8.60
78316;PMS7003;67572;50.930;18.276;2023-07-24T15:32:35;8.00;7.00;7.00
78316;PMS7003;67572;50.930;18.276;2023-07-24T15:35:38;7.80;7.60;7.20
78316;PMS7003;67572;50.930;18.276;2023-07-24T15:38:42;9.20;8.00;7.20
78316;PMS7003;67572;50.930;18.276;2023-07-24T15:41:45;10.60;8.80;8.60
78316;PMS7003;67572;50.930;18.276;2023-07-24T15:44:48;9.40;8.60;8.00
78316;PMS7003;67572;50.930;18.276;2023-07-24T15:47:54;10.80;7.60;7.40
78316;PMS7003;67572;50.930;18.276;2023-07-24T15:56:13;10.80;8.40;7.40
78316;PMS7003;67572;50.930;18.276;2023-07-24T17:22:48;6.60;6.00;6.00
78316;PMS7003;67572;50.930;18.276;2023-07-24T17:25:52;9.60;6.00;5.40
78316;PMS7003;67572;50.930;18.276;2023-07-24T17:28:56;11.00;8.80;7.60
78316;PMS7003;67572;50.930;18.276;2023-07-24T17:32:03;9.20;9.20;7.00
78316;PMS7003;67572;50.930;18.276;2023-07-24T17:35:08;7.75;7.25;7.00
78316;PMS7003;67572;50.930;18.276;2023-07-24T17:38:13;8.40;8.40;8.00
78316;PMS7003;67572;50.930;18.276;2023-07-24T17:41:17;8.80;6.60;6.60
78316;PMS7003;67572;50.930;18.276;2023-07-24T17:44:21;7.60;7.00;6.80
78316;PMS7003;67572;50.930;18.276;2023-07-24T17:47:24;6.80;6.00;6.00
78316;PMS7003;67572;50.930;18.276;2023-07-24T17:50:28;10.80;7.00;7.00
78316;PMS7003;67572;50.930;18.276;2023-07-24T17:53:33;5.50;5.50;5.25
78316;PMS7003;67572;50.930;18.276;2023-07-24T17:56:36;7.60;7.00;6.40
78316;PMS7003;67572;50.930;18.276;2023-07-24T17:59:40;7.80;7.80;7.60
78316;PMS7003;67572;50.930;18.276;2023-07-24T18:02:47;6.60;6.60;6.40
78316;PMS7003;67572;50.930;18.276;2023-07-24T18:05:51;7.50;6.50;5.50
78316;PMS7003;67572;50.930;18.276;2023-07-24T18:08:56;7.75;6.75;6.00
78316;PMS7003;67572;50.930;18.276;2023-07-24T18:12:00;7.20;6.20;6.20
78316;PMS7003;67572;50.930;18.276;2023-07-24T18:15:04;7.75;5.25;5.00
78316;PMS7003;67572;50.930;18.276;2023-07-24T18:18:08;9.00;6.00;5.80
78316;PMS7003;67572;50.930;18.276;2023-07-24T18:21:12;6.00;6.00;5.50
78316;PMS7003;67572;50.930;18.276;2023-07-24T18:24:17;6.00;6.00;5.00
78316;PMS7003;67572;50.930;18.276;2023-07-24T18:27:22;8.00;7.50;6.50
78316;PMS7003;67572;50.930;18.276;2023-07-24T18:30:26;8.50;5.75;5.25
78316;PMS7003;67572;50.930;18.276;2023-07-24T18:33:31;7.00;5.25;5.25
78316;PMS7003;67572;50.930;18.276;2023-07-24T18:36:35;9.00;6.00;5.75
78316;PMS7003;67572;50.930;18.276;2023-07-24T18:39:40;8.25;6.00;5.75
78316;PMS7003;67572;50.930;18.276;2023-07-24T18:42:44;8.25;5.50;5.25
78316;PMS7003;67572;50.930;18.276;2023-07-24T18:45:47;9.75;6.00;5.00
78316;PMS7003;67572;50.930;18.276;2023-07-24T18:48:51;7.50;6.25;5.25
78316;PMS7003;67572;50.930;18.276;2023-07-24T18:51:54;10.75;6.50;6.00
78316;PMS7003;67572;50.930;18.276;2023-07-24T18:54:59;8.25;7.50;6.75
78316;PMS7003;67572;50.930;18.276;2023-07-24T18:58:03;4.00;4.00;3.00
78316;PMS7003;67572;50.930;18.276;2023-07-24T19:01:08;6.75;6.75;6.25
78316;PMS7003;67572;50.930;18.276;2023-07-24T19:04:11;8.50;6.50;5.00
78316;PMS7003;67572;50.930;18.276;2023-07-24T19:07:16;5.00;5.00;5.00
78316;PMS7003;67572;50.930;18.276;2023-07-24T19:10:22;6.00;6.00;5.75
78316;PMS7003;67572;50.930;18.276;2023-07-24T19:13:26;13.75;9.00;8.00